createdAt,value
2019-03-10T00:02:47.536Z,100232.80
2019-03-10T00:07:51.776Z,100214.24
2019-03-10T00:12:56.008Z,100223.20
2019-03-10T00:18:00.236Z,100227.50
2019-03-10T00:23:04.469Z,100227.48
2019-03-10T00:28:08.996Z,100228.28
2019-03-10T00:33:13.236Z,100228.94
2019-03-10T00:38:17.462Z,100232.65
2019-03-10T00:43:58.549Z,100244.97
2019-03-10T00:49:43.985Z,100255.86
2019-03-10T00:54:48.217Z,100249.23
2019-03-10T00:59:52.470Z,100251.47
2019-03-10T01:04:56.709Z,100242.58
2019-03-10T01:10:01.139Z,100241.64
2019-03-10T01:15:06.131Z,100235.25
2019-03-10T01:20:11.353Z,100232.89
2019-03-10T01:25:15.986Z,100225.00
2019-03-10T01:30:20.713Z,100225.12
2019-03-10T01:35:34.949Z,100216.27
2019-03-10T01:40:39.180Z,100216.73
2019-03-10T01:45:43.426Z,100224.20
2019-03-10T01:50:47.658Z,100218.77
2019-03-10T01:55:51.890Z,100203.88
2019-03-10T02:00:56.173Z,100206.58
2019-03-10T02:06:00.403Z,100198.33
2019-03-10T02:11:04.628Z,100197.53
2019-03-10T02:16:08.994Z,100185.87
2019-03-10T02:21:13.258Z,100183.41
2019-03-10T02:26:17.482Z,100179.15
2019-03-10T02:31:21.719Z,100179.34
2019-03-10T02:36:25.959Z,100178.28
2019-03-10T02:41:30.591Z,100177.25
2019-03-10T02:46:34.833Z,100164.52
2019-03-10T02:51:39.203Z,100159.07
2019-03-10T02:56:43.747Z,100144.77
2019-03-10T03:01:48.087Z,100141.50
2019-03-10T03:06:52.396Z,100146.67
2019-03-10T03:11:56.613Z,100146.61
2019-03-10T03:17:00.838Z,100140.18
2019-03-10T03:22:05.105Z,100136.08
2019-03-10T03:27:09.327Z,100129.00
2019-03-10T03:32:13.652Z,100118.20
2019-03-10T03:37:20.265Z,100110.45
2019-03-10T03:42:24.486Z,100121.27
2019-03-10T03:47:28.713Z,100114.38
2019-03-10T03:52:32.975Z,100110.52
2019-03-10T03:57:37.208Z,100096.09
2019-03-10T04:02:41.480Z,100091.80
2019-03-10T04:07:45.711Z,100111.37
2019-03-10T04:12:49.953Z,100104.31
2019-03-10T04:17:54.175Z,100100.26
2019-03-10T04:22:58.416Z,100109.02
2019-03-10T04:28:02.645Z,100117.48
2019-03-10T04:33:06.881Z,100113.83
2019-03-10T04:38:11.112Z,100099.67
2019-03-10T04:43:15.337Z,100102.64
2019-03-10T04:48:19.578Z,100114.18
2019-03-10T04:53:23.781Z,100115.95
2019-03-10T04:58:27.998Z,100111.86
2019-03-10T05:03:32.247Z,100124.91
2019-03-10T05:08:36.468Z,100114.43
2019-03-10T05:13:40.698Z,100110.98
2019-03-10T05:18:44.928Z,100122.39
2019-03-10T05:23:49.513Z,100120.38
2019-03-10T05:28:53.763Z,100113.55
2019-03-10T05:33:57.977Z,100090.20
2019-03-10T05:39:02.197Z,100104.39
2019-03-10T05:44:06.424Z,100086.92
2019-03-10T05:49:10.649Z,100098.89
2019-03-10T05:54:14.866Z,100092.95
2019-03-10T05:59:19.094Z,100082.98
2019-03-10T06:04:23.328Z,100068.59
2019-03-10T06:09:27.623Z,100072.25
2019-03-10T06:14:31.857Z,100053.49
2019-03-10T06:19:36.202Z,100050.52
2019-03-10T06:24:40.415Z,100039.71
2019-03-10T06:29:44.634Z,100037.75
2019-03-10T06:34:48.903Z,100038.80
2019-03-10T06:39:53.132Z,100028.59
2019-03-10T06:44:57.367Z,100030.34
2019-03-10T06:50:01.606Z,100027.50
2019-03-10T06:55:06.218Z,100014.66
2019-03-10T07:00:11.988Z,100024.02
2019-03-10T07:05:16.239Z,100018.70
2019-03-10T07:10:20.463Z,100013.58
2019-03-10T07:15:24.717Z,100006.45
2019-03-10T07:20:28.958Z,100007.67
2019-03-10T07:25:33.190Z,100002.05
2019-03-10T07:30:48.317Z,100010.20
2019-03-10T07:36:02.211Z,99996.30
2019-03-10T07:41:34.444Z,99996.64
2019-03-10T07:46:46.531Z,100001.60
2019-03-10T07:51:58.627Z,100000.69
2019-03-10T07:57:40.041Z,99991.08
2019-03-10T08:03:03.198Z,99980.66
2019-03-10T08:08:35.304Z,99973.66
2019-03-10T08:13:59.376Z,99963.23
2019-03-10T08:19:21.251Z,99957.83
2019-03-10T08:24:44.429Z,99952.92
2019-03-10T08:30:10.657Z,99937.23
2019-03-10T08:35:29.602Z,99925.83
2019-03-10T08:40:39.639Z,99908.03
2019-03-10T08:45:55.227Z,99897.70
2019-03-10T08:51:17.390Z,99890.77
2019-03-10T08:56:36.904Z,99882.48
2019-03-10T09:02:04.461Z,99893.11
2019-03-10T09:07:30.609Z,99871.66
2019-03-10T09:13:12.214Z,99884.16
2019-03-10T09:18:42.149Z,99863.39
2019-03-10T09:24:05.326Z,99852.14
2019-03-10T09:29:25.020Z,99850.06
2019-03-10T09:35:00.592Z,99826.49
2019-03-10T09:40:18.559Z,99817.66
2019-03-10T09:45:31.500Z,99804.48
2019-03-10T09:50:53.594Z,99797.97
2019-03-10T09:56:22.662Z,99784.84
2019-03-10T10:01:37.968Z,99773.04
2019-03-10T10:07:03.983Z,99771.69
2019-03-10T10:12:45.385Z,99766.19
2019-03-10T10:18:00.710Z,99753.27
2019-03-10T10:23:32.971Z,99734.81
2019-03-10T10:29:02.148Z,99740.77
2019-03-10T10:34:20.654Z,99725.78
2019-03-10T10:39:42.496Z,99706.89
2019-03-10T10:45:05.678Z,99695.59
2019-03-10T10:50:31.905Z,99680.66
2019-03-10T10:56:01.213Z,99675.47
2019-03-10T11:01:30.933Z,99672.48
2019-03-10T11:07:12.472Z,99668.45
2019-03-10T11:12:34.282Z,99667.20
2019-03-10T11:17:47.851Z,99657.70
2019-03-10T11:23:20.319Z,99627.66
2019-03-10T11:28:45.968Z,99617.11
2019-03-10T11:34:09.139Z,99593.84
2019-03-10T11:39:19.823Z,99600.70
2019-03-10T11:44:41.963Z,99603.50
2019-03-10T11:49:56.655Z,99606.61
2019-03-10T11:55:09.954Z,99601.21
2019-03-10T12:00:33.184Z,99584.75
2019-03-10T12:06:05.521Z,99564.33
2019-03-10T12:11:09.763Z,99548.11
2019-03-10T12:16:13.986Z,99533.93
2019-03-10T12:21:18.235Z,99524.59
2019-03-10T12:26:22.459Z,99511.46
2019-03-10T12:31:26.724Z,99500.89
2019-03-10T12:36:31.023Z,99485.39
2019-03-10T12:41:35.241Z,99471.74
2019-03-10T12:46:39.481Z,99463.57
2019-03-10T12:51:43.759Z,99448.26
2019-03-10T12:56:48.003Z,99448.64
2019-03-10T13:01:52.226Z,99437.19
2019-03-10T13:06:56.487Z,99428.13
2019-03-10T13:12:00.728Z,99404.75
2019-03-10T13:17:04.954Z,99412.86
2019-03-10T13:22:09.190Z,99413.17
2019-03-10T13:27:13.440Z,99407.84
2019-03-10T13:32:17.687Z,99391.62
2019-03-10T13:37:21.921Z,99388.94
2019-03-10T13:42:26.176Z,99386.53
2019-03-10T13:47:30.406Z,99373.61
2019-03-10T13:52:34.694Z,99366.03
2019-03-10T13:57:38.914Z,99357.06
2019-03-10T14:02:43.182Z,99338.25
2019-03-10T14:07:47.536Z,99319.83
2019-03-10T14:12:51.779Z,99311.84
2019-03-10T14:17:56.049Z,99295.89
2019-03-10T14:23:00.273Z,99289.00
2019-03-10T14:28:04.619Z,99260.93
2019-03-10T14:33:08.866Z,99264.84
2019-03-10T14:38:13.120Z,99249.59
2019-03-10T14:43:17.350Z,99219.58
2019-03-10T14:48:21.592Z,99200.14
2019-03-10T14:53:25.854Z,99192.30
2019-03-10T14:58:30.109Z,99191.19
2019-03-10T15:03:34.329Z,99195.41
2019-03-10T15:08:38.594Z,99194.84
2019-03-10T15:13:42.804Z,99186.68
2019-03-10T15:18:47.970Z,99176.75
2019-03-10T15:23:52.213Z,99155.49
2019-03-10T15:28:56.617Z,99131.86
2019-03-10T15:34:00.869Z,99119.52
2019-03-10T15:39:06.408Z,99122.45
2019-03-10T15:44:10.658Z,99130.95
2019-03-10T15:49:14.906Z,99131.58
2019-03-10T15:54:19.154Z,99113.83
2019-03-10T15:59:23.378Z,99099.23
2019-03-10T16:04:27.612Z,99088.34
2019-03-10T16:09:31.874Z,99080.72
2019-03-10T16:14:36.263Z,99066.44
2019-03-10T16:19:40.488Z,99060.97
2019-03-10T16:24:44.731Z,99075.88
2019-03-10T16:29:48.986Z,99076.50
2019-03-10T16:34:53.229Z,99075.17
2019-03-10T16:39:57.462Z,99076.97
2019-03-10T16:45:01.702Z,99070.49
2019-03-10T16:50:07.246Z,99076.71
2019-03-10T16:55:11.716Z,99081.27
2019-03-10T17:00:18.251Z,99084.45
2019-03-10T17:05:22.553Z,99097.00
2019-03-10T17:10:26.930Z,99093.87
2019-03-10T17:15:31.504Z,99078.00
2019-03-10T17:20:35.771Z,99063.64
2019-03-10T17:25:40.039Z,99049.09
2019-03-10T17:30:44.298Z,99024.52
2019-03-10T17:35:48.593Z,99032.83
2019-03-10T17:40:52.866Z,99036.61
2019-03-10T17:45:57.212Z,99057.26
2019-03-10T17:51:01.786Z,99077.80
2019-03-10T17:56:06.180Z,99080.98
2019-03-10T18:01:10.546Z,99090.95
2019-03-10T18:06:14.867Z,99080.16
2019-03-10T18:11:19.444Z,99085.77
2019-03-10T18:16:24.230Z,99089.86
2019-03-10T18:21:28.814Z,99099.05
2019-03-10T18:26:33.483Z,99109.67
2019-03-10T18:31:38.219Z,99125.42
2019-03-10T18:36:43.023Z,99120.89
2019-03-10T18:41:48.028Z,99143.11
2019-03-10T18:46:52.704Z,99164.20
2019-03-10T18:51:57.219Z,99173.06
2019-03-10T18:57:02.043Z,99156.34
2019-03-10T19:02:07.102Z,99170.08
2019-03-10T19:07:11.663Z,99186.23
2019-03-10T19:12:18.196Z,99193.03
2019-03-10T19:17:23.031Z,99194.74
2019-03-10T19:22:28.326Z,99205.77
2019-03-10T19:27:32.672Z,99216.44
2019-03-10T19:32:37.730Z,99224.95
2019-03-10T19:37:42.570Z,99233.80
2019-03-10T19:42:47.292Z,99259.22
2019-03-10T19:47:52.332Z,99276.48
2019-03-10T19:52:58.334Z,99293.14
2019-03-10T19:58:03.875Z,99319.12
2019-03-10T20:03:09.722Z,99346.72
2019-03-10T20:08:14.652Z,99369.67
2019-03-10T20:13:20.282Z,99390.83
2019-03-10T20:18:29.357Z,99414.71
2019-03-10T20:23:34.128Z,99437.69
2019-03-10T20:28:38.981Z,99452.09
2019-03-10T20:33:43.577Z,99478.77
2019-03-10T20:38:48.321Z,99513.75
2019-03-10T20:43:53.293Z,99527.28
2019-03-10T20:48:58.063Z,99557.94
2019-03-10T20:54:02.732Z,99591.84
2019-03-10T20:59:07.059Z,99613.81
2019-03-10T21:04:11.325Z,99633.70
2019-03-10T21:09:15.845Z,99649.98
2019-03-10T21:14:20.257Z,99673.71
2019-03-10T21:19:24.667Z,99696.75
2019-03-10T21:24:28.907Z,99708.68
2019-03-10T21:29:33.160Z,99725.95
2019-03-10T21:34:37.405Z,99742.97
2019-03-10T21:39:41.645Z,99756.41
2019-03-10T21:44:45.869Z,99776.66
2019-03-10T21:49:50.129Z,99807.61
2019-03-10T21:54:54.352Z,99805.17
2019-03-10T21:59:58.575Z,99835.59
2019-03-10T22:05:02.815Z,99852.87
2019-03-10T22:10:08.279Z,99865.20
2019-03-10T22:15:13.227Z,99874.13
2019-03-10T22:20:17.550Z,99902.59
2019-03-10T22:25:21.811Z,99913.86
2019-03-10T22:30:26.051Z,99925.94
2019-03-10T22:35:30.289Z,99929.47
2019-03-10T22:40:34.527Z,99946.63
2019-03-10T22:45:38.761Z,99964.13
2019-03-10T22:50:42.996Z,99978.66
2019-03-10T22:55:47.233Z,100001.73
2019-03-10T23:00:53.576Z,100011.91
2019-03-10T23:05:57.821Z,100009.66
2019-03-10T23:11:02.136Z,100025.51
2019-03-10T23:16:06.534Z,100037.47
2019-03-10T23:21:10.769Z,100058.11
2019-03-10T23:26:15.020Z,100078.81
2019-03-10T23:31:19.254Z,100091.16
2019-03-10T23:36:23.490Z,100091.28
2019-03-10T23:41:27.741Z,100109.03
2019-03-10T23:46:32.042Z,100120.75
2019-03-10T23:51:36.290Z,100116.95
2019-03-10T23:56:40.528Z,100126.73
